Time;durP1;ratioP1;P1;durP2;ratioP2;P2;SDS_P1;SDS_P2;PMS_P1;PMS_P2;Temp;Humidity;BMP_temperature;BMP_pressure;BME280_temperature;BME280_humidity;BME280_pressure;Samples;Min_cycle;Max_cycle;Signal;HPM_P1;HPM_P2
2022/08/25 00:00:10;;;;;;;;;;;;;;;29.24;44.06;99199.34;4449985;32;34265;-89
2022/08/25 00:02:38;;;;;;;;;;;;;;;29.22;43.95;99192.41;4449453;32;35217;-88
2022/08/25 00:05:06;;;;;;;;;;;;;;;29.20;43.95;99194.31;4443473;32;33760;-90
2022/08/25 00:07:35;;;;;;;;;;;;;;;29.20;43.98;99188.97;4447514;32;34338;-91
2022/08/25 00:10:03;;;;;;;;;;;;;;;29.18;43.98;99190.88;4436113;32;34239;-86
2022/08/25 00:12:31;;;;;;;;;;;;;;;29.14;44.15;99181.34;4439360;32;34368;-91
2022/08/25 00:14:58;;;;;;;;;;;;;;;29.14;44.23;99186.69;4451701;32;34594;-86
2022/08/25 00:17:27;;;;;;;;;;;;;;;29.19;44.22;99195.25;4450243;32;33539;-92
2022/08/25 00:19:54;;;;;;;;;;;;;;;29.19;44.20;99188.09;4436069;32;34361;-90
2022/08/25 00:22:21;;;;;;;;;;;;;;;29.13;44.29;99187.63;4437991;32;35171;-85
2022/08/25 00:24:49;;;;;;;;;;;;;;;29.08;44.43;99186.09;4451357;32;34094;-87
2022/08/25 00:27:16;;;;;;;;;;;;;;;28.88;45.01;99180.28;4451116;32;34065;-88
2022/08/25 00:29:44;;;;;;;;;;;;;;;28.35;46.52;99183.44;4435848;32;32801;-90
2022/08/25 00:32:12;;;;;;;;;;;;;;;28.53;46.15;99186.84;4436604;32;35172;-91
2022/08/25 00:34:39;;;;;;;;;;;;;;;28.71;45.74;99192.84;4450522;32;34364;-91
2022/08/25 00:37:08;;;;;;;;;;;;;;;28.45;46.08;99189.12;4451432;32;33395;-85
2022/08/25 00:39:36;;;;;;;;;;;;;;;28.48;45.95;99182.72;4437133;32;33635;-90
2022/08/25 00:42:04;;;;;;;;;;;;;;;28.77;45.32;99178.28;4451319;32;34355;-92
2022/08/25 00:44:38;;;;;;;;;;;;;;;28.69;45.52;99183.25;4449649;32;34565;-91
2022/08/25 00:47:05;;;;;;;;;;;;;;;28.70;45.39;99184.94;4451255;32;33552;-91
2022/08/25 00:49:37;;;;;;;;;;;;;;;28.82;45.02;99178.84;4437820;32;33770;-86
2022/08/25 00:52:10;;;;;;;;;;;;;;;28.89;44.63;99176.66;4435532;32;34114;-90
2022/08/25 00:54:39;;;;;;;;;;;;;;;28.39;45.76;99183.28;4440956;32;34992;-91
2022/08/25 00:57:07;;;;;;;;;;;;;;;28.73;45.05;99187.44;4449872;32;34550;-85
2022/08/25 00:59:34;;;;;;;;;;;;;;;28.72;45.01;99185.72;4437783;32;35538;-86
2022/08/25 01:02:03;;;;;;;;;;;;;;;28.82;44.76;99181.50;4434153;32;34322;-93
2022/08/25 01:04:30;;;;;;;;;;;;;;;28.90;44.39;99173.03;4439325;32;34509;-89
2022/08/25 01:06:57;;;;;;;;;;;;;;;28.81;44.66;99175.31;4451271;32;33394;-86
2022/08/25 01:09:25;;;;;;;;;;;;;;;28.49;45.55;99174.66;4438843;32;34330;-90
2022/08/25 01:11:52;;;;;;;;;;;;;;;28.78;44.84;99170.16;4434291;32;34170;-87
2022/08/25 01:14:19;;;;;;;;;;;;;;;28.84;44.63;99169.81;4440431;32;34783;-87
2022/08/25 01:16:47;;;;;;;;;;;;;;;28.80;44.70;99170.94;4446156;32;33374;-87
2022/08/25 01:19:20;;;;;;;;;;;;;;;28.43;45.58;99175.00;4443694;32;34898;-87
2022/08/25 01:21:48;;;;;;;;;;;;;;;28.65;45.27;99174.56;4452905;32;34330;-91
2022/08/25 01:24:20;;;;;;;;;;;;;;;28.29;46.15;99180.28;4453021;32;34345;-92
2022/08/25 01:26:47;;;;;;;;;;;;;;;28.28;46.40;99175.91;4449987;32;33110;-86
2022/08/25 01:29:20;;;;;;;;;;;;;;;27.40;48.57;99183.59;4447370;32;33985;-85
2022/08/25 01:31:48;;;;;;;;;;;;;;;28.03;46.84;99176.47;4437448;32;34299;-89
2022/08/25 01:34:16;;;;;;;;;;;;;;;27.97;47.02;99180.38;4437279;32;34006;-86
2022/08/25 01:36:44;;;;;;;;;;;;;;;28.20;46.55;99170.16;4451130;32;33703;-86
2022/08/25 01:39:11;;;;;;;;;;;;;;;28.40;45.93;99159.19;4452953;32;35074;-91
2022/08/25 01:41:45;;;;;;;;;;;;;;;28.36;45.88;99165.63;4445377;32;35085;-88
2022/08/25 01:44:13;;;;;;;;;;;;;;;28.34;45.98;99164.88;4436360;32;35042;-90
2022/08/25 01:46:43;;;;;;;;;;;;;;;28.47;45.68;99165.00;4450603;32;33521;-85
2022/08/25 01:49:10;;;;;;;;;;;;;;;28.57;45.40;99172.38;4450919;32;33980;-88
2022/08/25 01:51:39;;;;;;;;;;;;;;;28.56;45.25;99173.31;4451494;32;35322;-86
2022/08/25 01:54:06;;;;;;;;;;;;;;;28.59;45.17;99170.44;4451265;32;35302;-86
2022/08/25 01:56:33;;;;;;;;;;;;;;;28.61;45.08;99173.03;4448430;32;33567;-92
2022/08/25 01:59:00;;;;;;;;;;;;;;;28.59;45.05;99178.44;4452330;32;34229;-87
2022/08/25 02:01:28;;;;;;;;;;;;;;;28.51;45.22;99175.41;4452442;32;35251;-89
2022/08/25 02:03:55;;;;;;;;;;;;;;;28.25;45.71;99170.75;4452846;32;35265;-91
2022/08/25 02:06:27;;;;;;;;;;;;;;;28.55;45.14;99171.59;4438774;32;34204;-85
2022/08/25 02:09:07;;;;;;;;;;;;;;;28.61;44.86;99170.37;4435846;32;33777;-86
2022/08/25 02:11:35;;;;;;;;;;;;;;;28.37;45.42;99175.38;4441436;32;34359;-88
2022/08/25 02:14:03;;;;;;;;;;;;;;;28.27;45.59;99161.72;4452722;32;34339;-92
2022/08/25 02:16:32;;;;;;;;;;;;;;;28.47;45.10;99155.19;4438207;32;33478;-87
2022/08/25 02:18:59;;;;;;;;;;;;;;;28.46;45.18;99168.63;4437152;32;34599;-86
2022/08/25 02:21:27;;;;;;;;;;;;;;;28.61;44.53;99165.03;4436968;32;34109;-85
2022/08/25 02:23:55;;;;;;;;;;;;;;;28.61;44.52;99165.03;4434856;32;34278;-86
2022/08/25 02:26:22;;;;;;;;;;;;;;;28.47;44.74;99157.00;4444188;32;33274;-86
2022/08/25 02:28:50;;;;;;;;;;;;;;;28.54;44.52;99155.69;4448265;32;33981;-85
2022/08/25 02:31:18;;;;;;;;;;;;;;;28.52;44.62;99158.44;4452459;32;35176;-92
2022/08/25 02:33:45;;;;;;;;;;;;;;;28.59;44.51;99157.09;4452583;32;34467;-86
2022/08/25 02:36:13;;;;;;;;;;;;;;;28.55;44.66;99152.91;4438766;32;33563;-85
2022/08/25 02:38:40;;;;;;;;;;;;;;;28.61;44.53;99157.03;4435565;32;34252;-90
2022/08/25 02:41:12;;;;;;;;;;;;;;;28.58;44.52;99157.22;4435884;32;34349;-86
2022/08/25 02:43:40;;;;;;;;;;;;;;;28.53;44.84;99154.84;4437315;32;36621;-91
2022/08/25 02:46:08;;;;;;;;;;;;;;;28.62;44.77;99158.75;4448130;32;33469;-91
2022/08/25 02:48:36;;;;;;;;;;;;;;;28.60;44.80;99153.50;4452312;32;34300;-91
2022/08/25 02:51:05;;;;;;;;;;;;;;;28.58;44.92;99155.41;4444314;32;34868;-90
2022/08/25 02:53:32;;;;;;;;;;;;;;;28.70;44.67;99144.94;4437548;32;35183;-85
2022/08/25 02:55:59;;;;;;;;;;;;;;;28.69;44.72;99149.41;4436880;32;33333;-91
2022/08/25 02:58:27;;;;;;;;;;;;;;;28.65;44.81;99147.87;4435402;32;34315;-86
2022/08/25 03:00:55;;;;;;;;;;;;;;;28.70;44.61;99150.25;4436952;32;35268;-88
2022/08/25 03:03:22;;;;;;;;;;;;;;;28.70;44.61;99151.12;4436825;32;34318;-91
2022/08/25 03:05:50;;;;;;;;;;;;;;;28.62;44.80;99146.25;4436757;32;33265;-88
2022/08/25 03:08:17;;;;;;;;;;;;;;;28.58;44.98;99147.41;4442878;32;34726;-92
2022/08/25 03:10:44;;;;;;;;;;;;;;;28.62;44.86;99148.91;4452296;32;34122;-92
2022/08/25 03:13:13;;;;;;;;;;;;;;;28.63;44.84;99149.78;4440927;32;34137;-88
2022/08/25 03:15:41;;;;;;;;;;;;;;;28.56;44.88;99144.00;4436804;32;33425;-86
2022/08/25 03:18:10;;;;;;;;;;;;;;;28.71;44.44;99141.31;4436679;32;35442;-90
2022/08/25 03:20:40;;;;;;;;;;;;;;;28.64;44.56;99145.28;4436669;32;34223;-91
2022/08/25 03:23:07;;;;;;;;;;;;;;;28.39;45.04;99143.28;4436592;32;34789;-90
2022/08/25 03:28:21;;;;;;;;;;;;;;;28.07;46.34;99140.69;4436732;32;33846;-85
2022/08/25 03:30:56;;;;;;;;;;;;;;;28.26;46.02;99146.69;4436388;32;34865;-91
2022/08/25 03:33:23;;;;;;;;;;;;;;;27.86;47.64;99148.19;4447967;32;34278;-86
2022/08/25 03:35:51;;;;;;;;;;;;;;;27.96;47.29;99146.69;4451162;32;34416;-88
2022/08/25 03:38:18;;;;;;;;;;;;;;;28.34;45.65;99154.22;4438169;32;34285;-87
2022/08/25 03:40:45;;;;;;;;;;;;;;;27.99;46.38;99156.28;4436448;32;35832;-88
2022/08/25 03:43:12;;;;;;;;;;;;;;;28.01;46.25;99157.94;4446495;32;34992;-90
2022/08/25 03:45:40;;;;;;;;;;;;;;;27.92;46.30;99158.50;4444638;32;33182;-89
2022/08/25 03:48:08;;;;;;;;;;;;;;;28.23;45.73;99154.84;4435106;32;35008;-91
2022/08/25 03:50:35;;;;;;;;;;;;;;;28.33;45.40;99149.81;4436470;32;34491;-86
2022/08/25 03:53:03;;;;;;;;;;;;;;;28.39;45.07;99152.16;4435777;32;35125;-86
2022/08/25 03:55:30;;;;;;;;;;;;;;;28.23;45.45;99138.00;4436416;32;33533;-92
2022/08/25 03:57:58;;;;;;;;;;;;;;;28.21;45.52;99145.22;4436555;32;34280;-93
2022/08/25 04:00:26;;;;;;;;;;;;;;;28.24;45.54;99142.38;4436342;32;34119;-91
2022/08/25 04:02:53;;;;;;;;;;;;;;;28.43;45.08;99142.16;4435978;32;34164;-90
2022/08/25 04:05:20;;;;;;;;;;;;;;;28.47;44.78;99151.69;4436467;32;34446;-91
2022/08/25 04:07:47;;;;;;;;;;;;;;;28.23;45.30;99146.00;4435851;32;34881;-91
2022/08/25 04:10:15;;;;;;;;;;;;;;;28.25;45.36;99144.09;4436397;32;33934;-91
2022/08/25 04:12:42;;;;;;;;;;;;;;;28.34;45.08;99148.88;4435983;32;35093;-90
2022/08/25 04:15:10;;;;;;;;;;;;;;;28.43;44.95;99156.34;4436034;32;33173;-92
2022/08/25 04:17:38;;;;;;;;;;;;;;;28.14;45.76;99160.72;4435008;32;35079;-92
2022/08/25 04:20:07;;;;;;;;;;;;;;;28.22;45.57;99155.78;4434936;32;34123;-86
2022/08/25 04:22:35;;;;;;;;;;;;;;;28.29;45.52;99161.59;4435367;32;34139;-89
2022/08/25 04:25:04;;;;;;;;;;;;;;;28.35;45.33;99156.78;4434537;32;34492;-90
2022/08/25 04:27:31;;;;;;;;;;;;;;;28.42;45.12;99156.44;4435771;32;34826;-86
2022/08/25 04:29:58;;;;;;;;;;;;;;;28.08;45.97;99156.63;4435722;32;34359;-86
2022/08/25 04:32:26;;;;;;;;;;;;;;;28.12;46.29;99160.81;4435776;32;34083;-88
2022/08/25 04:34:54;;;;;;;;;;;;;;;28.21;46.56;99159.41;4435842;32;34519;-86
2022/08/25 04:37:21;;;;;;;;;;;;;;;28.14;46.88;99150.91;4435726;32;33914;-86
2022/08/25 04:39:48;;;;;;;;;;;;;;;28.27;47.09;99151.06;4436540;32;35339;-85
2022/08/25 04:42:16;;;;;;;;;;;;;;;28.75;46.76;99158.81;4435561;32;34075;-89
2022/08/25 04:44:43;;;;;;;;;;;;;;;29.07;45.84;99155.03;4435497;32;33189;-87
2022/08/25 04:47:11;;;;;;;;;;;;;;;29.50;44.89;99149.59;4436353;32;35208;-89
2022/08/25 04:49:38;;;;;;;;;;;;;;;29.42;45.12;99149.25;4437407;32;33883;-86
2022/08/25 04:52:05;;;;;;;;;;;;;;;29.57;45.35;99153.63;4437539;32;35343;-87
2022/08/25 04:54:41;;;;;;;;;;;;;;;30.23;44.08;99151.91;4437739;32;34188;-90
2022/08/25 04:57:08;;;;;;;;;;;;;;;30.63;43.13;99150.97;4437501;32;34221;-86
2022/08/25 04:59:35;;;;;;;;;;;;;;;30.96;42.00;99150.44;4437326;32;33916;-91
2022/08/25 05:02:04;;;;;;;;;;;;;;;31.12;41.80;99155.53;4437576;32;35262;-85
2022/08/25 05:04:32;;;;;;;;;;;;;;;31.36;41.24;99147.56;4437155;32;33322;-89
2022/08/25 05:06:59;;;;;;;;;;;;;;;31.63;41.00;99150.03;4437736;32;35587;-86
2022/08/25 05:09:27;;;;;;;;;;;;;;;31.69;41.11;99152.25;4437020;32;34133;-91
2022/08/25 05:11:54;;;;;;;;;;;;;;;31.94;40.67;99154.84;4437234;32;34278;-88
2022/08/25 05:14:21;;;;;;;;;;;;;;;32.01;40.75;99151.69;4437613;32;34337;-84
2022/08/25 05:16:53;;;;;;;;;;;;;;;31.89;41.03;99151.62;4437546;32;34953;-88
2022/08/25 05:19:22;;;;;;;;;;;;;;;32.35;40.12;99152.63;4445504;32;35032;-88
2022/08/25 05:21:49;;;;;;;;;;;;;;;32.36;40.21;99149.84;4437763;32;34470;-85
2022/08/25 05:24:17;;;;;;;;;;;;;;;32.46;40.15;99142.78;4437221;32;34466;-89
2022/08/25 05:26:45;;;;;;;;;;;;;;;32.23;40.66;99149.91;4437181;32;34851;-88
2022/08/25 05:29:13;;;;;;;;;;;;;;;31.96;42.16;99152.03;4448371;32;35227;-90
2022/08/25 05:31:42;;;;;;;;;;;;;;;32.31;41.11;99146.63;4452215;32;34511;-86
2022/08/25 05:34:17;;;;;;;;;;;;;;;31.59;42.99;99148.53;4448581;32;33500;-86
2022/08/25 05:36:45;;;;;;;;;;;;;;;32.73;40.28;99140.75;4437347;32;34415;-86
2022/08/25 05:39:13;;;;;;;;;;;;;;;32.29;42.06;99151.28;4436688;32;35062;-86
2022/08/25 05:41:40;;;;;;;;;;;;;;;32.62;40.91;99155.03;4436014;32;36097;-84
2022/08/25 05:44:07;;;;;;;;;;;;;;;32.53;40.91;99147.69;4437278;32;34018;-86
2022/08/25 05:46:35;;;;;;;;;;;;;;;31.30;43.93;99151.56;4437765;32;33763;-88
2022/08/25 05:49:02;;;;;;;;;;;;;;;32.35;41.33;99142.78;4444532;32;34965;-91
2022/08/25 05:51:29;;;;;;;;;;;;;;;32.93;40.39;99146.28;4438551;32;34348;-88
2022/08/25 05:53:57;;;;;;;;;;;;;;;32.61;41.15;99147.94;4437446;32;33846;-88
2022/08/25 05:56:26;;;;;;;;;;;;;;;33.05;40.62;99144.44;4440668;32;33791;-89
2022/08/25 05:58:54;;;;;;;;;;;;;;;32.73;41.38;99141.59;4446160;32;35454;-88
2022/08/25 06:04:12;;;;;;;;;;;;;;;32.59;42.12;99147.22;4437543;32;33413;-89
2022/08/25 06:06:40;;;;;;;;;;;;;;;32.14;41.91;99145.28;4442600;32;34236;-92
2022/08/25 06:09:08;;;;;;;;;;;;;;;30.41;45.32;99151.59;4435955;32;34366;-86
2022/08/25 06:11:36;;;;;;;;;;;;;;;30.57;45.75;99152.22;4437047;32;33831;-87
2022/08/25 06:14:04;;;;;;;;;;;;;;;30.13;45.98;99144.59;4449238;32;33767;-88
2022/08/25 06:16:31;;;;;;;;;;;;;;;30.63;43.65;99149.13;4452391;32;34327;-86
2022/08/25 06:18:59;;;;;;;;;;;;;;;31.33;42.60;99162.06;4451910;32;34570;-86
2022/08/25 06:21:27;;;;;;;;;;;;;;;31.12;43.56;99160.88;4444736;32;35074;-87
2022/08/25 06:23:55;;;;;;;;;;;;;;;30.77;42.67;99156.25;4443152;32;33175;-92
2022/08/25 06:26:22;;;;;;;;;;;;;;;31.04;42.92;99158.75;4443706;32;34361;-85
2022/08/25 06:28:50;;;;;;;;;;;;;;;31.46;42.19;99152.12;4437336;32;34566;-86
2022/08/25 06:31:18;;;;;;;;;;;;;;;30.93;43.61;99161.34;4435971;32;34433;-85
2022/08/25 06:33:45;;;;;;;;;;;;;;;31.31;43.35;99158.62;4444385;32;33537;-84
2022/08/25 06:36:13;;;;;;;;;;;;;;;30.86;45.85;99160.94;4440144;32;34063;-85
2022/08/25 06:38:40;;;;;;;;;;;;;;;30.12;45.96;99165.13;4436890;32;34478;-89
2022/08/25 06:41:09;;;;;;;;;;;;;;;30.88;45.00;99171.53;4437213;32;34173;-89
2022/08/25 06:43:36;;;;;;;;;;;;;;;31.29;44.84;99173.03;4436736;32;33440;-85
2022/08/25 06:46:08;;;;;;;;;;;;;;;31.76;43.97;99161.56;4437045;32;34921;-87
2022/08/25 06:48:36;;;;;;;;;;;;;;;30.88;45.52;99171.53;4436840;32;33565;-91
2022/08/25 06:51:07;;;;;;;;;;;;;;;31.05;44.11;99175.69;4436934;32;34030;-91
2022/08/25 06:53:37;;;;;;;;;;;;;;;31.07;42.79;99174.62;4436728;32;33665;-88
2022/08/25 06:56:04;;;;;;;;;;;;;;;30.78;44.12;99180.19;4449550;32;34308;-87
2022/08/25 06:58:32;;;;;;;;;;;;;;;31.72;41.81;99170.78;4452329;32;33735;-86
2022/08/25 07:01:11;;;;;;;;;;;;;;;31.97;40.75;99173.38;4452020;32;33952;-87
2022/08/25 07:03:46;;;;;;;;;;;;;;;31.37;43.02;99184.13;4450094;32;33313;-87
2022/08/25 07:06:14;;;;;;;;;;;;;;;32.30;39.76;99170.91;4451004;32;34301;-87
2022/08/25 07:08:45;;;;;;;;;;;;;;;32.43;40.38;99177.94;4444032;32;34421;-87
2022/08/25 07:11:13;;;;;;;;;;;;;;;32.29;40.43;99170.06;4449326;32;35125;-89
2022/08/25 07:13:43;;;;;;;;;;;;;;;32.32;39.64;99174.34;4452092;32;34285;-85
2022/08/25 07:16:11;;;;;;;;;;;;;;;32.68;39.93;99176.88;4451758;32;34974;-93
2022/08/25 07:18:38;;;;;;;;;;;;;;;32.75;40.06;99171.88;4446849;32;34084;-87
2022/08/25 07:21:06;;;;;;;;;;;;;;;31.76;40.82;99174.09;4437265;32;34286;-85
2022/08/25 07:23:35;;;;;;;;;;;;;;;31.68;42.99;99178.22;4422910;32;33376;-86
2022/08/25 07:26:07;;;;;;;;;;;;;;;31.56;40.54;99175.56;4437364;32;33670;-85
2022/08/25 07:28:53;;;;;;;;;;;;;;;32.17;41.28;99176.38;4441283;32;34526;-89
2022/08/25 07:31:20;;;;;;;;;;;;;;;31.78;41.45;99175.69;4451964;32;34242;-87
2022/08/25 07:36:42;;;;;;;;;;;;;;;31.98;41.16;99176.91;4439634;32;32696;-89
2022/08/25 07:39:10;;;;;;;;;;;;;;;32.67;38.29;99175.16;4444630;32;35386;-92
2022/08/25 07:41:38;;;;;;;;;;;;;;;33.17;37.31;99174.84;4444169;32;34138;-90
2022/08/25 07:44:06;;;;;;;;;;;;;;;33.23;36.19;99170.81;4437809;32;34001;-89
2022/08/25 07:46:33;;;;;;;;;;;;;;;32.39;38.47;99171.06;4438017;32;34944;-90
2022/08/25 07:49:01;;;;;;;;;;;;;;;31.95;38.18;99171.78;4441098;32;34286;-89
2022/08/25 07:51:28;;;;;;;;;;;;;;;32.55;38.00;99173.44;4436453;32;34347;-89
2022/08/25 07:53:55;;;;;;;;;;;;;;;32.95;38.31;99170.31;4451059;32;33648;-87
2022/08/25 07:56:24;;;;;;;;;;;;;;;33.20;38.18;99166.53;4451206;32;33817;-92
2022/08/25 07:58:51;;;;;;;;;;;;;;;33.30;37.41;99161.25;4451878;32;34917;-87
2022/08/25 08:01:20;;;;;;;;;;;;;;;33.98;34.81;99161.94;4451404;32;35199;-88
2022/08/25 08:03:48;;;;;;;;;;;;;;;33.06;36.52;99162.25;4440940;32;34505;-87
2022/08/25 08:06:19;;;;;;;;;;;;;;;33.74;35.50;99162.16;4447002;32;33831;-92
2022/08/25 08:08:48;;;;;;;;;;;;;;;33.60;35.92;99163.28;4434904;32;35124;-90
2022/08/25 08:11:17;;;;;;;;;;;;;;;33.57;36.29;99163.56;4436131;32;35144;-87
2022/08/25 08:13:45;;;;;;;;;;;;;;;33.16;36.11;99167.75;4439659;32;34408;-88
2022/08/25 08:16:13;;;;;;;;;;;;;;;31.40;39.71;99181.19;4449043;32;34259;-89
2022/08/25 08:18:41;;;;;;;;;;;;;;;32.14;38.25;99171.25;4449969;32;35631;-88
2022/08/25 08:21:16;;;;;;;;;;;;;;;30.96;39.64;99180.72;4450289;32;34246;-87
2022/08/25 08:23:47;;;;;;;;;;;;;;;30.96;40.03;99179.88;4449917;32;34298;-87
2022/08/25 08:26:15;;;;;;;;;;;;;;;31.49;40.39;99170.66;4436194;32;34774;-88
2022/08/25 08:28:43;;;;;;;;;;;;;;;31.78;39.91;99170.31;4436088;32;35216;-87
2022/08/25 08:31:19;;;;;;;;;;;;;;;31.11;39.34;99180.63;4436065;32;34471;-87
2022/08/25 08:33:47;;;;;;;;;;;;;;;32.82;37.99;99167.75;4435740;32;34383;-88
2022/08/25 08:36:14;;;;;;;;;;;;;;;32.92;36.98;99163.34;4435965;32;34266;-89
2022/08/25 08:38:43;;;;;;;;;;;;;;;32.98;37.10;99162.03;4446769;32;34065;-87
2022/08/25 08:44:06;;;;;;;;;;;;;;;32.88;37.30;99161.91;4444308;32;33705;-89
2022/08/25 08:46:39;;;;;;;;;;;;;;;33.27;37.98;99172.28;4450188;32;34739;-90
2022/08/25 08:49:10;;;;;;;;;;;;;;;33.77;37.80;99165.44;4436291;32;34885;-87
2022/08/25 08:51:41;;;;;;;;;;;;;;;33.88;36.26;99162.72;4438982;32;34312;-87
2022/08/25 08:54:13;;;;;;;;;;;;;;;34.43;35.15;99156.34;4434341;32;33504;-86
2022/08/25 08:56:43;;;;;;;;;;;;;;;33.95;34.51;99162.22;4435606;32;33762;-87
2022/08/25 08:59:25;;;;;;;;;;;;;;;33.16;34.43;99159.69;4434910;32;35354;-89
2022/08/25 09:02:00;;;;;;;;;;;;;;;33.89;34.06;99161.72;4446465;32;34110;-88
2022/08/25 09:04:32;;;;;;;;;;;;;;;33.79;35.22;99159.94;4443717;32;34456;-87
2022/08/25 09:07:00;;;;;;;;;;;;;;;32.76;36.75;99162.84;4449495;32;34208;-87
2022/08/25 09:09:28;;;;;;;;;;;;;;;33.33;35.73;99167.22;4450207;32;35208;-89
2022/08/25 09:12:00;;;;;;;;;;;;;;;33.31;35.59;99154.91;4435295;32;34656;-88
2022/08/25 09:14:37;;;;;;;;;;;;;;;33.13;35.79;99159.94;4434105;32;33398;-87
2022/08/25 09:17:05;;;;;;;;;;;;;;;32.56;36.51;99155.50;4434618;32;34197;-88
2022/08/25 09:19:52;;;;;;;;;;;;;;;33.41;36.15;99151.34;4442038;32;33911;-87
2022/08/25 09:22:26;;;;;;;;;;;;;;;33.72;35.54;99146.16;4435469;32;34332;-89
2022/08/25 09:25:19;;;;;;;;;;;;;;;34.25;32.97;99135.41;4435358;32;33310;-90
2022/08/25 09:28:07;;;;;;;;;;;;;;;33.48;35.53;99140.13;4435032;32;34350;-87
2022/08/25 09:30:45;;;;;;;;;;;;;;;33.31;35.35;99141.47;4436507;32;35080;-86
2022/08/25 09:33:18;;;;;;;;;;;;;;;33.35;36.76;99138.41;4435947;32;34011;-87
2022/08/25 09:35:47;;;;;;;;;;;;;;;33.65;36.60;99134.22;4452826;32;33583;-86
2022/08/25 09:38:16;;;;;;;;;;;;;;;34.16;36.40;99127.28;4449904;32;34184;-87
2022/08/25 09:40:45;;;;;;;;;;;;;;;34.35;35.82;99125.53;4442486;32;34937;-89
2022/08/25 09:43:21;;;;;;;;;;;;;;;34.53;34.33;99130.38;4438347;32;35227;-88
2022/08/25 09:45:55;;;;;;;;;;;;;;;34.01;35.11;99116.81;4441530;32;34295;-90
2022/08/25 09:48:42;;;;;;;;;;;;;;;33.68;34.64;99112.44;4436736;32;34759;-89
2022/08/25 09:51:15;;;;;;;;;;;;;;;34.42;33.14;99114.25;4442056;32;34499;-89
2022/08/25 09:53:54;;;;;;;;;;;;;;;34.66;34.22;99112.13;4438857;32;34062;-88
2022/08/25 09:56:26;;;;;;;;;;;;;;;33.64;33.27;99102.91;4438156;32;34159;-87
2022/08/25 09:58:54;;;;;;;;;;;;;;;33.79;36.00;99103.47;4448914;32;34231;-89
2022/08/25 10:01:27;;;;;;;;;;;;;;;34.12;32.14;99097.09;4452736;32;33914;-87
2022/08/25 10:04:05;;;;;;;;;;;;;;;33.90;33.47;99095.34;4447225;32;35233;-89
2022/08/25 10:06:43;;;;;;;;;;;;;;;34.50;32.71;99093.78;4441566;32;33326;-89
2022/08/25 10:09:13;;;;;;;;;;;;;;;34.27;32.92;99102.97;4435587;32;34281;-88
2022/08/25 10:11:42;;;;;;;;;;;;;;;33.95;32.42;99092.28;4446522;32;33708;-85
2022/08/25 10:14:12;;;;;;;;;;;;;;;33.67;33.88;99092.75;4449212;32;34109;-85
2022/08/25 10:16:40;;;;;;;;;;;;;;;33.93;33.02;99084.31;4448738;32;34158;-86
2022/08/25 10:19:22;;;;;;;;;;;;;;;33.32;32.98;99086.75;4438530;32;35018;-86
2022/08/25 10:22:01;;;;;;;;;;;;;;;33.33;33.26;99086.63;4439076;32;34500;-87
2022/08/25 10:24:28;;;;;;;;;;;;;;;33.13;34.07;99084.72;4447422;32;35236;-83
2022/08/25 10:27:15;;;;;;;;;;;;;;;33.96;33.86;99084.06;4439702;32;34316;-86
2022/08/25 10:30:01;;;;;;;;;;;;;;;32.80;35.64;99077.53;4438053;32;34239;-87
2022/08/25 10:32:29;;;;;;;;;;;;;;;33.60;33.82;99072.78;4447456;32;35108;-88
2022/08/25 10:34:57;;;;;;;;;;;;;;;33.36;33.08;99075.62;4452167;32;34365;-86
2022/08/25 10:37:32;;;;;;;;;;;;;;;33.46;33.93;99070.38;4447846;32;33445;-89
2022/08/25 10:40:18;;;;;;;;;;;;;;;32.85;35.37;99076.22;4450480;32;35059;-87
2022/08/25 10:42:46;;;;;;;;;;;;;;;33.74;32.86;99068.91;4439355;32;34140;-87
2022/08/25 10:45:42;;;;;;;;;;;;;;;34.13;33.75;99069.19;4447460;32;34266;-92
2022/08/25 10:48:24;;;;;;;;;;;;;;;34.52;31.51;99064.06;4450187;32;34346;-90
2022/08/25 10:50:52;;;;;;;;;;;;;;;34.90;32.46;99063.34;4444731;32;34093;-90
2022/08/25 10:53:25;;;;;;;;;;;;;;;34.87;31.38;99060.91;4437060;32;34525;-87
2022/08/25 10:55:59;;;;;;;;;;;;;;;35.27;31.24;99050.13;4436926;32;35218;-90
2022/08/25 10:58:26;;;;;;;;;;;;;;;34.10;32.60;99054.19;4436330;32;33324;-92
2022/08/25 11:01:13;;;;;;;;;;;;;;;35.08;29.48;99045.56;4442345;32;33936;-88
2022/08/25 11:03:48;;;;;;;;;;;;;;;34.07;31.38;99049.06;4444601;32;35063;-87
2022/08/25 11:06:19;;;;;;;;;;;;;;;34.21;31.35;99041.63;4449725;32;34472;-87
2022/08/25 11:08:49;;;;;;;;;;;;;;;34.62;31.25;99043.38;4447370;32;34324;-85
2022/08/25 11:11:25;;;;;;;;;;;;;;;34.75;30.89;99038.63;4447258;32;34112;-88
2022/08/25 11:14:14;;;;;;;;;;;;;;;34.66;30.65;99039.44;4449069;32;33979;-86
2022/08/25 11:16:47;;;;;;;;;;;;;;;34.79;31.01;99040.06;4427661;32;34161;-85
2022/08/25 11:19:19;;;;;;;;;;;;;;;34.39;32.03;99031.94;4448887;32;34459;-89
2022/08/25 11:21:52;;;;;;;;;;;;;;;35.57;30.96;99019.50;4436415;32;33925;-90
2022/08/25 11:24:20;;;;;;;;;;;;;;;35.58;30.52;99020.34;4436523;32;35355;-89
2022/08/25 11:26:52;;;;;;;;;;;;;;;35.88;30.64;99015.75;4436356;32;35356;-87
2022/08/25 11:29:20;;;;;;;;;;;;;;;35.60;29.99;99010.25;4446985;32;34469;-91
2022/08/25 11:31:51;;;;;;;;;;;;;;;35.96;29.55;99011.34;4443756;32;34332;-93
2022/08/25 11:34:20;;;;;;;;;;;;;;;34.95;29.35;99007.19;4450378;32;34269;-86
2022/08/25 11:36:49;;;;;;;;;;;;;;;34.87;30.45;98998.97;4451581;32;35204;-91
2022/08/25 11:39:35;;;;;;;;;;;;;;;34.11;30.73;99001.22;4450697;32;33682;-90
2022/08/25 11:42:21;;;;;;;;;;;;;;;34.83;29.14;98998.38;4444343;32;34215;-91
2022/08/25 11:44:57;;;;;;;;;;;;;;;34.72;31.39;98993.13;4449983;32;35302;-94
2022/08/25 11:47:37;;;;;;;;;;;;;;;34.09;31.03;98997.81;4450729;32;35341;-92
2022/08/25 11:50:06;;;;;;;;;;;;;;;34.45;31.88;98987.50;4449110;32;34442;-94
2022/08/25 11:52:36;;;;;;;;;;;;;;;34.49;31.78;98994.31;4451878;32;35018;-94
2022/08/25 11:55:15;;;;;;;;;;;;;;;34.78;32.15;98989.88;4439767;32;34380;-92
2022/08/25 11:57:43;;;;;;;;;;;;;;;34.61;29.21;98982.47;4441603;32;35211;-92
2022/08/25 12:00:13;;;;;;;;;;;;;;;34.62;29.95;98986.84;4447740;32;33382;-91
2022/08/25 12:02:42;;;;;;;;;;;;;;;34.59;30.04;98987.16;4450476;32;33525;-91
2022/08/25 12:05:15;;;;;;;;;;;;;;;34.38;31.72;98979.94;4451314;32;35167;-94
2022/08/25 12:07:46;;;;;;;;;;;;;;;35.49;27.84;98976.19;4451515;32;34350;-94
2022/08/25 12:10:17;;;;;;;;;;;;;;;35.23;30.42;98966.97;4443945;32;33064;-93
2022/08/25 12:12:44;;;;;;;;;;;;;;;34.59;30.51;98977.22;4434841;32;34057;-91
2022/08/25 12:15:22;;;;;;;;;;;;;;;34.06;30.31;98976.56;4437213;32;34241;-93
2022/08/25 12:18:08;;;;;;;;;;;;;;;34.79;29.87;98969.19;4453886;32;35292;-87
2022/08/25 12:20:52;;;;;;;;;;;;;;;35.05;30.91;98964.16;4449755;32;33545;-91
2022/08/25 12:23:31;;;;;;;;;;;;;;;35.70;29.41;98967.94;4438693;32;35779;-90
2022/08/25 12:26:00;;;;;;;;;;;;;;;36.08;27.80;98965.31;4443061;32;34069;-87
2022/08/25 12:28:32;;;;;;;;;;;;;;;36.05;30.44;98974.56;4443790;32;35373;-86
2022/08/25 12:31:03;;;;;;;;;;;;;;;35.71;29.16;98966.94;4434454;32;33618;-93
2022/08/25 12:33:52;;;;;;;;;;;;;;;35.59;28.66;98965.41;4434345;32;34349;-91
2022/08/25 12:36:26;;;;;;;;;;;;;;;36.06;31.48;98970.84;4434324;32;33976;-91
2022/08/25 12:38:54;;;;;;;;;;;;;;;35.86;29.14;98964.63;4434552;32;34518;-88
2022/08/25 12:41:22;;;;;;;;;;;;;;;35.60;29.21;98953.62;4434373;32;34157;-88
2022/08/25 12:43:51;;;;;;;;;;;;;;;35.64;29.72;98948.78;4429776;32;33834;-88
2022/08/25 12:46:22;;;;;;;;;;;;;;;36.09;29.15;98948.97;4434525;32;34077;-96
2022/08/25 12:48:54;;;;;;;;;;;;;;;34.90;32.51;98949.34;4435225;32;34811;-91
2022/08/25 12:51:24;;;;;;;;;;;;;;;35.69;31.47;98947.38;4434405;32;33404;-95
2022/08/25 12:54:11;;;;;;;;;;;;;;;35.27;32.79;98947.69;4406161;32;919644;-86
2022/08/25 12:56:46;;;;;;;;;;;;;;;36.29;29.65;98950.59;4444521;32;34377;-91
2022/08/25 12:59:20;;;;;;;;;;;;;;;35.93;31.49;98948.72;4450772;32;32888;-93
2022/08/25 13:01:52;;;;;;;;;;;;;;;34.73;30.79;98943.66;4450577;32;34464;-93
2022/08/25 13:04:38;;;;;;;;;;;;;;;35.69;29.22;98946.53;4435360;32;34999;-91
2022/08/25 13:07:07;;;;;;;;;;;;;;;35.56;31.42;98946.81;4435529;32;34862;-92
2022/08/25 13:09:39;;;;;;;;;;;;;;;36.08;31.58;98949.13;4437328;32;34365;-93
2022/08/25 13:12:17;;;;;;;;;;;;;;;35.47;30.29;98937.72;4437609;32;33007;-90
2022/08/25 13:14:45;;;;;;;;;;;;;;;35.89;29.57;98933.84;4450063;32;34379;-93